sensor_id;sensor_type;location;lat;lon;timestamp;P1;durP1;ratioP1;P2;durP2;ratioP2
55069;SDS011;40967;52.070;8.596;2023-05-14T00:00:12;2.28;;;1.30;;
55069;SDS011;40967;52.070;8.596;2023-05-14T00:02:38;2.42;;;1.33;;
55069;SDS011;40967;52.070;8.596;2023-05-14T00:05:04;2.40;;;1.50;;
55069;SDS011;40967;52.070;8.596;2023-05-14T00:07:30;3.00;;;1.60;;
55069;SDS011;40967;52.070;8.596;2023-05-14T00:09:56;2.10;;;1.33;;
55069;SDS011;40967;52.070;8.596;2023-05-14T00:12:21;2.13;;;1.30;;
55069;SDS011;40967;52.070;8.596;2023-05-14T00:14:47;3.00;;;1.60;;
55069;SDS011;40967;52.070;8.596;2023-05-14T00:17:12;2.33;;;1.40;;
55069;SDS011;40967;52.070;8.596;2023-05-14T00:19:40;2.17;;;1.35;;
55069;SDS011;40967;52.070;8.596;2023-05-14T00:22:07;2.45;;;1.38;;
55069;SDS011;40967;52.070;8.596;2023-05-14T00:24:33;2.30;;;1.38;;
55069;SDS011;40967;52.070;8.596;2023-05-14T00:26:58;2.13;;;1.30;;
55069;SDS011;40967;52.070;8.596;2023-05-14T00:29:24;2.30;;;1.27;;
55069;SDS011;40967;52.070;8.596;2023-05-14T00:31:49;2.47;;;1.37;;
55069;SDS011;40967;52.070;8.596;2023-05-14T00:34:15;2.70;;;1.50;;
55069;SDS011;40967;52.070;8.596;2023-05-14T00:36:40;2.90;;;1.40;;
55069;SDS011;40967;52.070;8.596;2023-05-14T00:39:05;2.50;;;1.60;;
55069;SDS011;40967;52.070;8.596;2023-05-14T00:41:31;3.00;;;1.40;;
55069;SDS011;40967;52.070;8.596;2023-05-14T00:43:56;2.70;;;1.60;;
55069;SDS011;40967;52.070;8.596;2023-05-14T00:46:22;3.20;;;1.70;;
55069;SDS011;40967;52.070;8.596;2023-05-14T00:48:47;2.60;;;1.42;;
55069;SDS011;40967;52.070;8.596;2023-05-14T00:51:13;3.00;;;1.60;;
55069;SDS011;40967;52.070;8.596;2023-05-14T00:53:39;2.15;;;1.35;;
55069;SDS011;40967;52.070;8.596;2023-05-14T00:56:05;2.80;;;1.63;;
55069;SDS011;40967;52.070;8.596;2023-05-14T00:58:32;2.28;;;1.35;;
55069;SDS011;40967;52.070;8.596;2023-05-14T01:00:57;2.13;;;1.30;;
55069;SDS011;40967;52.070;8.596;2023-05-14T01:03:23;2.60;;;1.30;;
55069;SDS011;40967;52.070;8.596;2023-05-14T01:05:57;1.95;;;1.13;;
55069;SDS011;40967;52.070;8.596;2023-05-14T01:11:18;2.05;;;1.33;;
55069;SDS011;40967;52.070;8.596;2023-05-14T01:13:55;2.03;;;1.20;;
55069;SDS011;40967;52.070;8.596;2023-05-14T01:16:39;1.83;;;1.17;;
55069;SDS011;40967;52.070;8.596;2023-05-14T01:19:06;2.20;;;1.20;;
55069;SDS011;40967;52.070;8.596;2023-05-14T01:21:43;2.53;;;1.30;;
55069;SDS011;40967;52.070;8.596;2023-05-14T01:24:08;2.70;;;1.45;;
55069;SDS011;40967;52.070;8.596;2023-05-14T01:26:34;2.30;;;1.30;;
55069;SDS011;40967;52.070;8.596;2023-05-14T01:29:12;2.00;;;1.20;;
55069;SDS011;40967;52.070;8.596;2023-05-14T01:31:44;2.42;;;1.33;;
55069;SDS011;40967;52.070;8.596;2023-05-14T01:34:11;2.30;;;1.40;;
55069;SDS011;40967;52.070;8.596;2023-05-14T01:36:39;2.15;;;1.20;;
55069;SDS011;40967;52.070;8.596;2023-05-14T01:39:06;2.67;;;1.47;;
55069;SDS011;40967;52.070;8.596;2023-05-14T01:41:36;2.85;;;1.35;;
55069;SDS011;40967;52.070;8.596;2023-05-14T01:44:03;1.98;;;1.25;;
55069;SDS011;40967;52.070;8.596;2023-05-14T01:46:32;2.58;;;1.33;;
55069;SDS011;40967;52.070;8.596;2023-05-14T01:48:58;2.40;;;1.33;;
55069;SDS011;40967;52.070;8.596;2023-05-14T01:51:24;1.95;;;1.20;;
55069;SDS011;40967;52.070;8.596;2023-05-14T01:53:49;1.98;;;1.17;;
55069;SDS011;40967;52.070;8.596;2023-05-14T01:56:15;2.27;;;1.30;;
55069;SDS011;40967;52.070;8.596;2023-05-14T01:58:41;2.70;;;1.50;;
55069;SDS011;40967;52.070;8.596;2023-05-14T02:01:07;2.25;;;1.33;;
55069;SDS011;40967;52.070;8.596;2023-05-14T02:03:32;2.33;;;1.42;;
55069;SDS011;40967;52.070;8.596;2023-05-14T02:05:57;2.43;;;1.37;;
55069;SDS011;40967;52.070;8.596;2023-05-14T02:08:23;2.47;;;1.43;;
55069;SDS011;40967;52.070;8.596;2023-05-14T02:10:48;2.43;;;1.33;;
55069;SDS011;40967;52.070;8.596;2023-05-14T02:13:14;2.47;;;1.48;;
55069;SDS011;40967;52.070;8.596;2023-05-14T02:15:39;2.25;;;1.38;;
55069;SDS011;40967;52.070;8.596;2023-05-14T02:18:05;2.20;;;1.30;;
55069;SDS011;40967;52.070;8.596;2023-05-14T02:20:30;2.90;;;1.60;;
55069;SDS011;40967;52.070;8.596;2023-05-14T02:22:55;2.83;;;1.67;;
55069;SDS011;40967;52.070;8.596;2023-05-14T02:25:21;2.92;;;1.77;;
55069;SDS011;40967;52.070;8.596;2023-05-14T02:27:46;2.70;;;1.60;;
55069;SDS011;40967;52.070;8.596;2023-05-14T02:30:12;2.60;;;1.40;;
55069;SDS011;40967;52.070;8.596;2023-05-14T02:32:37;3.57;;;2.00;;
55069;SDS011;40967;52.070;8.596;2023-05-14T02:35:03;3.03;;;1.77;;
55069;SDS011;40967;52.070;8.596;2023-05-14T02:37:28;3.22;;;1.95;;
55069;SDS011;40967;52.070;8.596;2023-05-14T02:39:54;3.20;;;1.70;;
55069;SDS011;40967;52.070;8.596;2023-05-14T02:42:19;2.77;;;1.60;;
55069;SDS011;40967;52.070;8.596;2023-05-14T02:44:45;2.88;;;1.73;;
55069;SDS011;40967;52.070;8.596;2023-05-14T02:47:10;2.70;;;1.60;;
55069;SDS011;40967;52.070;8.596;2023-05-14T02:49:36;3.07;;;1.77;;
55069;SDS011;40967;52.070;8.596;2023-05-14T02:52:01;3.10;;;1.80;;
55069;SDS011;40967;52.070;8.596;2023-05-14T02:54:27;2.67;;;1.70;;
55069;SDS011;40967;52.070;8.596;2023-05-14T02:56:52;2.43;;;1.50;;
55069;SDS011;40967;52.070;8.596;2023-05-14T02:59:18;3.25;;;1.73;;
55069;SDS011;40967;52.070;8.596;2023-05-14T03:01:43;3.13;;;1.60;;
55069;SDS011;40967;52.070;8.596;2023-05-14T03:04:11;2.93;;;1.70;;
55069;SDS011;40967;52.070;8.596;2023-05-14T03:06:37;3.00;;;1.67;;
55069;SDS011;40967;52.070;8.596;2023-05-14T03:09:02;2.67;;;1.50;;
55069;SDS011;40967;52.070;8.596;2023-05-14T03:11:28;2.47;;;1.40;;
55069;SDS011;40967;52.070;8.596;2023-05-14T03:13:53;2.78;;;1.50;;
55069;SDS011;40967;52.070;8.596;2023-05-14T03:16:18;2.47;;;1.60;;
55069;SDS011;40967;52.070;8.596;2023-05-14T03:18:44;3.10;;;1.80;;
55069;SDS011;40967;52.070;8.596;2023-05-14T03:21:09;2.60;;;1.50;;
55069;SDS011;40967;52.070;8.596;2023-05-14T03:23:35;2.70;;;1.50;;
55069;SDS011;40967;52.070;8.596;2023-05-14T03:26:00;2.23;;;1.43;;
55069;SDS011;40967;52.070;8.596;2023-05-14T03:28:26;2.63;;;1.60;;
55069;SDS011;40967;52.070;8.596;2023-05-14T03:30:51;2.20;;;1.40;;
55069;SDS011;40967;52.070;8.596;2023-05-14T03:33:17;2.80;;;1.55;;
55069;SDS011;40967;52.070;8.596;2023-05-14T03:35:42;3.17;;;1.80;;
55069;SDS011;40967;52.070;8.596;2023-05-14T03:38:08;2.20;;;1.30;;
55069;SDS011;40967;52.070;8.596;2023-05-14T03:40:33;2.47;;;1.40;;
55069;SDS011;40967;52.070;8.596;2023-05-14T03:42:59;2.67;;;1.60;;
55069;SDS011;40967;52.070;8.596;2023-05-14T03:45:24;2.67;;;1.37;;
55069;SDS011;40967;52.070;8.596;2023-05-14T03:47:50;2.78;;;1.50;;
55069;SDS011;40967;52.070;8.596;2023-05-14T03:50:16;2.33;;;1.40;;
55069;SDS011;40967;52.070;8.596;2023-05-14T03:52:41;3.40;;;1.70;;
55069;SDS011;40967;52.070;8.596;2023-05-14T03:55:08;2.67;;;1.52;;
55069;SDS011;40967;52.070;8.596;2023-05-14T03:57:37;2.30;;;1.42;;
55069;SDS011;40967;52.070;8.596;2023-05-14T04:00:03;2.70;;;1.50;;
55069;SDS011;40967;52.070;8.596;2023-05-14T04:02:28;3.20;;;1.80;;
55069;SDS011;40967;52.070;8.596;2023-05-14T04:04:54;2.47;;;1.60;;
55069;SDS011;40967;52.070;8.596;2023-05-14T04:07:19;3.60;;;1.67;;
55069;SDS011;40967;52.070;8.596;2023-05-14T04:09:45;2.78;;;1.50;;
55069;SDS011;40967;52.070;8.596;2023-05-14T04:12:10;2.70;;;1.60;;
55069;SDS011;40967;52.070;8.596;2023-05-14T04:14:35;3.23;;;1.67;;
55069;SDS011;40967;52.070;8.596;2023-05-14T04:17:01;2.87;;;1.80;;
55069;SDS011;40967;52.070;8.596;2023-05-14T04:19:26;3.17;;;1.67;;
55069;SDS011;40967;52.070;8.596;2023-05-14T04:21:52;3.03;;;1.63;;
55069;SDS011;40967;52.070;8.596;2023-05-14T04:24:17;2.63;;;1.63;;
55069;SDS011;40967;52.070;8.596;2023-05-14T04:26:42;3.00;;;1.67;;
55069;SDS011;40967;52.070;8.596;2023-05-14T04:29:08;3.27;;;1.73;;
55069;SDS011;40967;52.070;8.596;2023-05-14T04:31:33;2.90;;;1.50;;
55069;SDS011;40967;52.070;8.596;2023-05-14T04:33:59;2.78;;;1.58;;
55069;SDS011;40967;52.070;8.596;2023-05-14T04:36:24;2.30;;;1.60;;
55069;SDS011;40967;52.070;8.596;2023-05-14T04:38:49;3.10;;;1.40;;
55069;SDS011;40967;52.070;8.596;2023-05-14T04:41:15;2.70;;;1.48;;
55069;SDS011;40967;52.070;8.596;2023-05-14T04:43:41;2.77;;;1.77;;
55069;SDS011;40967;52.070;8.596;2023-05-14T04:46:06;3.10;;;1.60;;
55069;SDS011;40967;52.070;8.596;2023-05-14T04:48:31;2.70;;;1.60;;
55069;SDS011;40967;52.070;8.596;2023-05-14T04:50:57;2.33;;;1.40;;
55069;SDS011;40967;52.070;8.596;2023-05-14T04:53:22;2.70;;;1.58;;
55069;SDS011;40967;52.070;8.596;2023-05-14T04:55:48;2.33;;;1.50;;
55069;SDS011;40967;52.070;8.596;2023-05-14T04:58:13;3.08;;;1.88;;
55069;SDS011;40967;52.070;8.596;2023-05-14T05:00:39;2.40;;;1.60;;
55069;SDS011;40967;52.070;8.596;2023-05-14T05:03:04;2.70;;;1.60;;
55069;SDS011;40967;52.070;8.596;2023-05-14T05:05:30;2.58;;;1.45;;
55069;SDS011;40967;52.070;8.596;2023-05-14T05:07:55;2.72;;;1.50;;
55069;SDS011;40967;52.070;8.596;2023-05-14T05:10:21;2.60;;;1.50;;
55069;SDS011;40967;52.070;8.596;2023-05-14T05:12:46;2.13;;;1.43;;
55069;SDS011;40967;52.070;8.596;2023-05-14T05:15:12;2.40;;;1.57;;
55069;SDS011;40967;52.070;8.596;2023-05-14T05:17:37;2.20;;;1.45;;
55069;SDS011;40967;52.070;8.596;2023-05-14T05:20:02;2.50;;;1.50;;
55069;SDS011;40967;52.070;8.596;2023-05-14T05:22:29;2.55;;;1.55;;
55069;SDS011;40967;52.070;8.596;2023-05-14T05:24:55;3.00;;;1.60;;
55069;SDS011;40967;52.070;8.596;2023-05-14T05:27:20;2.80;;;1.63;;
55069;SDS011;40967;52.070;8.596;2023-05-14T05:29:46;2.33;;;1.48;;
55069;SDS011;40967;52.070;8.596;2023-05-14T05:32:12;2.37;;;1.40;;
55069;SDS011;40967;52.070;8.596;2023-05-14T05:34:37;2.72;;;1.70;;
55069;SDS011;40967;52.070;8.596;2023-05-14T05:37:03;2.25;;;1.42;;
55069;SDS011;40967;52.070;8.596;2023-05-14T05:39:32;2.23;;;1.40;;
55069;SDS011;40967;52.070;8.596;2023-05-14T05:41:59;2.80;;;1.80;;
55069;SDS011;40967;52.070;8.596;2023-05-14T05:44:26;2.85;;;1.73;;
55069;SDS011;40967;52.070;8.596;2023-05-14T05:46:51;2.58;;;1.55;;
55069;SDS011;40967;52.070;8.596;2023-05-14T05:49:21;2.97;;;1.80;;
55069;SDS011;40967;52.070;8.596;2023-05-14T05:51:46;2.90;;;1.70;;
55069;SDS011;40967;52.070;8.596;2023-05-14T05:54:11;3.17;;;1.90;;
55069;SDS011;40967;52.070;8.596;2023-05-14T05:56:39;2.83;;;1.60;;
55069;SDS011;40967;52.070;8.596;2023-05-14T05:59:05;2.63;;;1.43;;
55069;SDS011;40967;52.070;8.596;2023-05-14T06:01:30;2.70;;;1.50;;
55069;SDS011;40967;52.070;8.596;2023-05-14T06:03:56;2.15;;;1.30;;
55069;SDS011;40967;52.070;8.596;2023-05-14T06:06:21;2.17;;;1.40;;
55069;SDS011;40967;52.070;8.596;2023-05-14T06:08:47;2.33;;;1.43;;
55069;SDS011;40967;52.070;8.596;2023-05-14T06:11:12;2.73;;;1.60;;
55069;SDS011;40967;52.070;8.596;2023-05-14T06:13:38;2.25;;;1.38;;
55069;SDS011;40967;52.070;8.596;2023-05-14T06:16:03;2.70;;;1.70;;
55069;SDS011;40967;52.070;8.596;2023-05-14T06:18:29;2.97;;;1.80;;
55069;SDS011;40967;52.070;8.596;2023-05-14T06:20:54;2.70;;;1.70;;
55069;SDS011;40967;52.070;8.596;2023-05-14T06:23:21;2.92;;;1.60;;
55069;SDS011;40967;52.070;8.596;2023-05-14T06:25:48;2.40;;;1.47;;
55069;SDS011;40967;52.070;8.596;2023-05-14T06:28:14;2.20;;;1.40;;
55069;SDS011;40967;52.070;8.596;2023-05-14T06:30:39;2.33;;;1.40;;
55069;SDS011;40967;52.070;8.596;2023-05-14T06:33:05;2.40;;;1.40;;
55069;SDS011;40967;52.070;8.596;2023-05-14T06:35:31;2.50;;;1.20;;
55069;SDS011;40967;52.070;8.596;2023-05-14T06:37:56;2.10;;;1.35;;
55069;SDS011;40967;52.070;8.596;2023-05-14T06:40:22;2.50;;;1.33;;
55069;SDS011;40967;52.070;8.596;2023-05-14T06:42:48;2.10;;;1.27;;
55069;SDS011;40967;52.070;8.596;2023-05-14T06:45:13;1.60;;;1.00;;
55069;SDS011;40967;52.070;8.596;2023-05-14T06:47:39;1.50;;;0.97;;
55069;SDS011;40967;52.070;8.596;2023-05-14T06:50:05;1.80;;;1.10;;
55069;SDS011;40967;52.070;8.596;2023-05-14T06:52:34;2.33;;;1.33;;
55069;SDS011;40967;52.070;8.596;2023-05-14T06:54:59;1.77;;;1.20;;
55069;SDS011;40967;52.070;8.596;2023-05-14T06:57:28;1.77;;;1.10;;
55069;SDS011;40967;52.070;8.596;2023-05-14T06:59:53;1.93;;;1.10;;
55069;SDS011;40967;52.070;8.596;2023-05-14T07:02:19;1.30;;;0.80;;
55069;SDS011;40967;52.070;8.596;2023-05-14T07:04:44;1.50;;;1.10;;
55069;SDS011;40967;52.070;8.596;2023-05-14T07:07:10;1.23;;;0.80;;
55069;SDS011;40967;52.070;8.596;2023-05-14T07:09:39;1.52;;;0.80;;
55069;SDS011;40967;52.070;8.596;2023-05-14T07:12:06;1.35;;;0.80;;
55069;SDS011;40967;52.070;8.596;2023-05-14T07:14:35;1.00;;;0.70;;
55069;SDS011;40967;52.070;8.596;2023-05-14T07:17:00;1.15;;;0.80;;
55069;SDS011;40967;52.070;8.596;2023-05-14T07:19:25;1.10;;;0.83;;
55069;SDS011;40967;52.070;8.596;2023-05-14T07:21:52;1.08;;;0.80;;
55069;SDS011;40967;52.070;8.596;2023-05-14T07:24:18;1.60;;;0.90;;
55069;SDS011;40967;52.070;8.596;2023-05-14T07:26:43;1.33;;;0.83;;
55069;SDS011;40967;52.070;8.596;2023-05-14T07:29:09;1.00;;;0.70;;
55069;SDS011;40967;52.070;8.596;2023-05-14T07:31:34;0.80;;;0.60;;
55069;SDS011;40967;52.070;8.596;2023-05-14T07:34:00;0.90;;;0.55;;
55069;SDS011;40967;52.070;8.596;2023-05-14T07:36:25;0.70;;;0.50;;
55069;SDS011;40967;52.070;8.596;2023-05-14T07:38:51;1.03;;;0.60;;
55069;SDS011;40967;52.070;8.596;2023-05-14T07:41:16;0.87;;;0.70;;
55069;SDS011;40967;52.070;8.596;2023-05-14T07:43:42;1.00;;;0.70;;
55069;SDS011;40967;52.070;8.596;2023-05-14T07:46:07;0.93;;;0.70;;
55069;SDS011;40967;52.070;8.596;2023-05-14T07:48:33;1.05;;;0.70;;
55069;SDS011;40967;52.070;8.596;2023-05-14T07:50:58;0.77;;;0.70;;
55069;SDS011;40967;52.070;8.596;2023-05-14T07:53:24;1.10;;;0.80;;
55069;SDS011;40967;52.070;8.596;2023-05-14T07:55:50;1.03;;;0.73;;
55069;SDS011;40967;52.070;8.596;2023-05-14T07:58:15;1.08;;;0.70;;
55069;SDS011;40967;52.070;8.596;2023-05-14T08:00:41;1.38;;;0.90;;
55069;SDS011;40967;52.070;8.596;2023-05-14T08:03:06;1.07;;;0.80;;
55069;SDS011;40967;52.070;8.596;2023-05-14T08:05:32;1.80;;;1.00;;
55069;SDS011;40967;52.070;8.596;2023-05-14T08:07:57;2.13;;;1.17;;
55069;SDS011;40967;52.070;8.596;2023-05-14T08:10:22;1.30;;;0.90;;
55069;SDS011;40967;52.070;8.596;2023-05-14T08:12:48;1.40;;;0.90;;
55069;SDS011;40967;52.070;8.596;2023-05-14T08:15:13;1.43;;;1.00;;
55069;SDS011;40967;52.070;8.596;2023-05-14T08:17:39;1.10;;;0.80;;
55069;SDS011;40967;52.070;8.596;2023-05-14T08:20:05;1.30;;;0.90;;
55069;SDS011;40967;52.070;8.596;2023-05-14T08:22:31;1.47;;;0.90;;
55069;SDS011;40967;52.070;8.596;2023-05-14T08:24:56;1.53;;;0.90;;
55069;SDS011;40967;52.070;8.596;2023-05-14T08:27:22;1.60;;;0.95;;
55069;SDS011;40967;52.070;8.596;2023-05-14T08:29:47;2.10;;;1.20;;
55069;SDS011;40967;52.070;8.596;2023-05-14T08:32:13;1.63;;;1.15;;
55069;SDS011;40967;52.070;8.596;2023-05-14T08:34:38;2.40;;;1.20;;
55069;SDS011;40967;52.070;8.596;2023-05-14T08:37:04;2.30;;;1.40;;
55069;SDS011;40967;52.070;8.596;2023-05-14T08:39:29;1.73;;;1.10;;
55069;SDS011;40967;52.070;8.596;2023-05-14T08:41:56;1.63;;;1.00;;
55069;SDS011;40967;52.070;8.596;2023-05-14T08:44:29;1.42;;;0.93;;
55069;SDS011;40967;52.070;8.596;2023-05-14T08:47:00;1.20;;;0.73;;
55069;SDS011;40967;52.070;8.596;2023-05-14T08:49:42;2.20;;;1.13;;
55069;SDS011;40967;52.070;8.596;2023-05-14T08:52:10;1.65;;;0.95;;
55069;SDS011;40967;52.070;8.596;2023-05-14T08:54:36;1.70;;;0.98;;
55069;SDS011;40967;52.070;8.596;2023-05-14T08:57:03;1.20;;;0.80;;
55069;SDS011;40967;52.070;8.596;2023-05-14T08:59:29;1.23;;;0.70;;
55069;SDS011;40967;52.070;8.596;2023-05-14T09:01:55;1.48;;;0.95;;
55069;SDS011;40967;52.070;8.596;2023-05-14T09:04:23;1.17;;;0.80;;
55069;SDS011;40967;52.070;8.596;2023-05-14T09:06:50;1.00;;;0.80;;
55069;SDS011;40967;52.070;8.596;2023-05-14T09:09:17;1.42;;;0.80;;
55069;SDS011;40967;52.070;8.596;2023-05-14T09:11:46;1.50;;;0.80;;
55069;SDS011;40967;52.070;8.596;2023-05-14T09:14:16;1.07;;;0.70;;
55069;SDS011;40967;52.070;8.596;2023-05-14T09:16:44;1.38;;;0.90;;
55069;SDS011;40967;52.070;8.596;2023-05-14T09:19:10;1.93;;;1.00;;
55069;SDS011;40967;52.070;8.596;2023-05-14T09:21:36;1.07;;;0.80;;
55069;SDS011;40967;52.070;8.596;2023-05-14T09:24:05;0.80;;;0.60;;
55069;SDS011;40967;52.070;8.596;2023-05-14T09:26:34;1.38;;;0.90;;
55069;SDS011;40967;52.070;8.596;2023-05-14T09:29:00;0.70;;;0.60;;
55069;SDS011;40967;52.070;8.596;2023-05-14T09:31:30;1.17;;;0.77;;
55069;SDS011;40967;52.070;8.596;2023-05-14T09:33:56;1.00;;;0.70;;
55069;SDS011;40967;52.070;8.596;2023-05-14T09:36:23;1.02;;;0.73;;
55069;SDS011;40967;52.070;8.596;2023-05-14T09:38:52;0.80;;;0.60;;
55069;SDS011;40967;52.070;8.596;2023-05-14T09:41:20;1.00;;;0.60;;
55069;SDS011;40967;52.070;8.596;2023-05-14T09:43:47;0.85;;;0.60;;
55069;SDS011;40967;52.070;8.596;2023-05-14T09:46:12;0.87;;;0.70;;
55069;SDS011;40967;52.070;8.596;2023-05-14T09:48:41;0.80;;;0.60;;
55069;SDS011;40967;52.070;8.596;2023-05-14T09:51:06;0.68;;;0.52;;
55069;SDS011;40967;52.070;8.596;2023-05-14T09:53:34;1.35;;;0.70;;
55069;SDS011;40967;52.070;8.596;2023-05-14T09:55:59;0.80;;;0.50;;
55069;SDS011;40967;52.070;8.596;2023-05-14T09:58:25;1.40;;;0.57;;
55069;SDS011;40967;52.070;8.596;2023-05-14T10:00:50;0.80;;;0.50;;
55069;SDS011;40967;52.070;8.596;2023-05-14T10:03:18;1.00;;;0.70;;
55069;SDS011;40967;52.070;8.596;2023-05-14T10:05:45;0.82;;;0.60;;
55069;SDS011;40967;52.070;8.596;2023-05-14T10:08:16;0.88;;;0.65;;
55069;SDS011;40967;52.070;8.596;2023-05-14T10:10:51;0.80;;;0.70;;
55069;SDS011;40967;52.070;8.596;2023-05-14T10:13:22;1.15;;;0.75;;
55069;SDS011;40967;52.070;8.596;2023-05-14T10:15:52;1.15;;;0.73;;
55069;SDS011;40967;52.070;8.596;2023-05-14T10:18:25;1.63;;;1.08;;
55069;SDS011;40967;52.070;8.596;2023-05-14T10:21:03;1.20;;;0.70;;
55069;SDS011;40967;52.070;8.596;2023-05-14T10:23:29;0.90;;;0.60;;
55069;SDS011;40967;52.070;8.596;2023-05-14T10:25:55;0.90;;;0.70;;
55069;SDS011;40967;52.070;8.596;2023-05-14T10:28:24;0.90;;;0.68;;
55069;SDS011;40967;52.070;8.596;2023-05-14T10:30:50;0.60;;;0.50;;
55069;SDS011;40967;52.070;8.596;2023-05-14T10:33:16;0.90;;;0.55;;
55069;SDS011;40967;52.070;8.596;2023-05-14T10:36:24;0.85;;;0.50;;
55069;SDS011;40967;52.070;8.596;2023-05-14T10:38:32;0.70;;;0.50;;
55069;SDS011;40967;52.070;8.596;2023-05-14T10:41:00;0.80;;;0.50;;
55069;SDS011;40967;52.070;8.596;2023-05-14T10:43:38;2.10;;;0.70;;
55069;SDS011;40967;52.070;8.596;2023-05-14T10:46:05;0.75;;;0.50;;
55069;SDS011;40967;52.070;8.596;2023-05-14T10:48:32;0.60;;;0.50;;
55069;SDS011;40967;52.070;8.596;2023-05-14T10:50:58;0.75;;;0.50;;
55069;SDS011;40967;52.070;8.596;2023-05-14T10:53:35;0.63;;;0.50;;
55069;SDS011;40967;52.070;8.596;2023-05-14T10:56:05;0.50;;;0.43;;
55069;SDS011;40967;52.070;8.596;2023-05-14T10:58:44;0.40;;;0.40;;
55069;SDS011;40967;52.070;8.596;2023-05-14T11:01:11;0.70;;;0.47;;
55069;SDS011;40967;52.070;8.596;2023-05-14T11:03:38;1.10;;;0.50;;
55069;SDS011;40967;52.070;8.596;2023-05-14T11:06:06;0.93;;;0.65;;
55069;SDS011;40967;52.070;8.596;2023-05-14T11:08:32;0.60;;;0.45;;
55069;SDS011;40967;52.070;8.596;2023-05-14T11:10:58;0.70;;;0.40;;
55069;SDS011;40967;52.070;8.596;2023-05-14T11:13:25;0.60;;;0.60;;
55069;SDS011;40967;52.070;8.596;2023-05-14T11:15:50;0.98;;;0.60;;
55069;SDS011;40967;52.070;8.596;2023-05-14T11:18:29;0.70;;;0.50;;
55069;SDS011;40967;52.070;8.596;2023-05-14T11:21:00;0.55;;;0.50;;
55069;SDS011;40967;52.070;8.596;2023-05-14T11:23:27;0.77;;;0.50;;
55069;SDS011;40967;52.070;8.596;2023-05-14T11:25:53;0.70;;;0.60;;
55069;SDS011;40967;52.070;8.596;2023-05-14T11:28:20;0.93;;;0.50;;
55069;SDS011;40967;52.070;8.596;2023-05-14T11:30:47;0.70;;;0.50;;
55069;SDS011;40967;52.070;8.596;2023-05-14T11:33:14;0.90;;;0.50;;
55069;SDS011;40967;52.070;8.596;2023-05-14T11:35:40;0.50;;;0.50;;
55069;SDS011;40967;52.070;8.596;2023-05-14T11:38:12;0.80;;;0.50;;
55069;SDS011;40967;52.070;8.596;2023-05-14T11:40:42;0.55;;;0.50;;
55069;SDS011;40967;52.070;8.596;2023-05-14T11:43:17;0.82;;;0.60;;
55069;SDS011;40967;52.070;8.596;2023-05-14T11:45:42;0.73;;;0.50;;
55069;SDS011;40967;52.070;8.596;2023-05-14T11:48:14;1.10;;;0.57;;
55069;SDS011;40967;52.070;8.596;2023-05-14T11:50:42;0.57;;;0.50;;
55069;SDS011;40967;52.070;8.596;2023-05-14T11:53:09;0.45;;;0.43;;
55069;SDS011;40967;52.070;8.596;2023-05-14T11:55:34;0.55;;;0.40;;
55069;SDS011;40967;52.070;8.596;2023-05-14T11:58:00;0.77;;;0.52;;
55069;SDS011;40967;52.070;8.596;2023-05-14T12:00:26;0.73;;;0.60;;
55069;SDS011;40967;52.070;8.596;2023-05-14T12:02:51;1.10;;;0.60;;
55069;SDS011;40967;52.070;8.596;2023-05-14T12:05:18;0.95;;;0.60;;
55069;SDS011;40967;52.070;8.596;2023-05-14T12:07:44;0.68;;;0.55;;
55069;SDS011;40967;52.070;8.596;2023-05-14T12:10:10;0.73;;;0.60;;
55069;SDS011;40967;52.070;8.596;2023-05-14T12:12:36;0.65;;;0.50;;
55069;SDS011;40967;52.070;8.596;2023-05-14T12:15:09;0.67;;;0.50;;
55069;SDS011;40967;52.070;8.596;2023-05-14T12:17:36;0.60;;;0.50;;
55069;SDS011;40967;52.070;8.596;2023-05-14T12:20:02;0.87;;;0.60;;
55069;SDS011;40967;52.070;8.596;2023-05-14T12:22:28;0.90;;;0.60;;
55069;SDS011;40967;52.070;8.596;2023-05-14T12:27:21;1.17;;;0.68;;
55069;SDS011;40967;52.070;8.596;2023-05-14T12:29:49;0.75;;;0.65;;
55069;SDS011;40967;52.070;8.596;2023-05-14T12:32:22;0.90;;;0.70;;
55069;SDS011;40967;52.070;8.596;2023-05-14T12:34:52;0.97;;;0.60;;
55069;SDS011;40967;52.070;8.596;2023-05-14T12:37:17;0.73;;;0.50;;
55069;SDS011;40967;52.070;8.596;2023-05-14T12:39:43;0.93;;;0.60;;
55069;SDS011;40967;52.070;8.596;2023-05-14T12:42:08;0.63;;;0.50;;
55069;SDS011;40967;52.070;8.596;2023-05-14T12:44:34;0.83;;;0.50;;
55069;SDS011;40967;52.070;8.596;2023-05-14T12:46:59;0.80;;;0.50;;
55069;SDS011;40967;52.070;8.596;2023-05-14T12:49:25;0.90;;;0.40;;
55069;SDS011;40967;52.070;8.596;2023-05-14T12:51:50;0.57;;;0.50;;
55069;SDS011;40967;52.070;8.596;2023-05-14T12:54:15;0.50;;;0.40;;
55069;SDS011;40967;52.070;8.596;2023-05-14T12:56:43;0.82;;;0.50;;
55069;SDS011;40967;52.070;8.596;2023-05-14T12:59:09;0.40;;;0.40;;
55069;SDS011;40967;52.070;8.596;2023-05-14T13:01:37;0.90;;;0.60;;
55069;SDS011;40967;52.070;8.596;2023-05-14T13:04:03;0.93;;;0.70;;
55069;SDS011;40967;52.070;8.596;2023-05-14T13:06:29;1.08;;;0.80;;
55069;SDS011;40967;52.070;8.596;2023-05-14T13:08:55;1.08;;;0.80;;
55069;SDS011;40967;52.070;8.596;2023-05-14T13:11:23;1.20;;;0.80;;
55069;SDS011;40967;52.070;8.596;2023-05-14T13:13:49;0.60;;;0.60;;
55069;SDS011;40967;52.070;8.596;2023-05-14T13:16:15;0.87;;;0.60;;
55069;SDS011;40967;52.070;8.596;2023-05-14T13:18:40;0.57;;;0.50;;
55069;SDS011;40967;52.070;8.596;2023-05-14T13:21:06;0.63;;;0.43;;
55069;SDS011;40967;52.070;8.596;2023-05-14T13:23:31;0.90;;;0.60;;
55069;SDS011;40967;52.070;8.596;2023-05-14T13:25:57;0.60;;;0.50;;
55069;SDS011;40967;52.070;8.596;2023-05-14T13:28:23;1.02;;;0.70;;
55069;SDS011;40967;52.070;8.596;2023-05-14T13:31:07;0.53;;;0.40;;
55069;SDS011;40967;52.070;8.596;2023-05-14T13:33:34;0.80;;;0.50;;
55069;SDS011;40967;52.070;8.596;2023-05-14T13:36:01;0.63;;;0.52;;
55069;SDS011;40967;52.070;8.596;2023-05-14T13:38:27;0.52;;;0.50;;
55069;SDS011;40967;52.070;8.596;2023-05-14T13:40:53;0.53;;;0.47;;
55069;SDS011;40967;52.070;8.596;2023-05-14T13:43:21;0.57;;;0.47;;
55069;SDS011;40967;52.070;8.596;2023-05-14T13:45:47;0.68;;;0.50;;
55069;SDS011;40967;52.070;8.596;2023-05-14T13:48:15;0.80;;;0.50;;
55069;SDS011;40967;52.070;8.596;2023-05-14T13:50:41;0.82;;;0.57;;
55069;SDS011;40967;52.070;8.596;2023-05-14T13:53:06;0.63;;;0.50;;
55069;SDS011;40967;52.070;8.596;2023-05-14T13:55:32;0.60;;;0.50;;
55069;SDS011;40967;52.070;8.596;2023-05-14T13:57:57;0.50;;;0.40;;
55069;SDS011;40967;52.070;8.596;2023-05-14T14:00:23;0.57;;;0.40;;
55069;SDS011;40967;52.070;8.596;2023-05-14T14:02:49;0.60;;;0.45;;
55069;SDS011;40967;52.070;8.596;2023-05-14T14:05:14;0.80;;;0.60;;
55069;SDS011;40967;52.070;8.596;2023-05-14T14:07:43;1.00;;;0.60;;
55069;SDS011;40967;52.070;8.596;2023-05-14T14:10:08;0.70;;;0.60;;
55069;SDS011;40967;52.070;8.596;2023-05-14T14:12:34;0.40;;;0.40;;
55069;SDS011;40967;52.070;8.596;2023-05-14T14:14:59;0.65;;;0.43;;
55069;SDS011;40967;52.070;8.596;2023-05-14T14:17:26;0.35;;;0.30;;
55069;SDS011;40967;52.070;8.596;2023-05-14T14:19:52;0.50;;;0.50;;
55069;SDS011;40967;52.070;8.596;2023-05-14T14:22:17;0.37;;;0.33;;
55069;SDS011;40967;52.070;8.596;2023-05-14T14:24:43;0.50;;;0.40;;
55069;SDS011;40967;52.070;8.596;2023-05-14T14:27:09;0.50;;;0.40;;
55069;SDS011;40967;52.070;8.596;2023-05-14T14:29:34;0.90;;;0.50;;
55069;SDS011;40967;52.070;8.596;2023-05-14T14:32:00;0.45;;;0.40;;
55069;SDS011;40967;52.070;8.596;2023-05-14T14:34:29;0.55;;;0.40;;
55069;SDS011;40967;52.070;8.596;2023-05-14T14:36:54;0.70;;;0.60;;
55069;SDS011;40967;52.070;8.596;2023-05-14T14:39:20;0.60;;;0.60;;
55069;SDS011;40967;52.070;8.596;2023-05-14T14:41:45;0.80;;;0.70;;
55069;SDS011;40967;52.070;8.596;2023-05-14T14:44:11;1.00;;;0.60;;
55069;SDS011;40967;52.070;8.596;2023-05-14T14:46:37;0.70;;;0.60;;
55069;SDS011;40967;52.070;8.596;2023-05-14T14:49:02;0.67;;;0.47;;